sensor_id;sensor_type;location;lat;lon;timestamp;P1;durP1;ratioP1;P2;durP2;ratioP2
611;SDS011;293;53.888;11.464;2022-11-14T00:00:42;26.30;;;20.07;;
611;SDS011;293;53.888;11.464;2022-11-14T00:03:10;24.83;;;19.60;;
611;SDS011;293;53.888;11.464;2022-11-14T00:05:38;26.87;;;21.07;;
611;SDS011;293;53.888;11.464;2022-11-14T00:08:06;28.90;;;21.90;;
611;SDS011;293;53.888;11.464;2022-11-14T00:10:40;28.67;;;20.40;;
611;SDS011;293;53.888;11.464;2022-11-14T00:13:07;28.67;;;21.53;;
611;SDS011;293;53.888;11.464;2022-11-14T00:15:34;27.30;;;22.33;;
611;SDS011;293;53.888;11.464;2022-11-14T00:18:01;30.00;;;20.67;;
611;SDS011;293;53.888;11.464;2022-11-14T00:20:28;27.93;;;21.27;;
611;SDS011;293;53.888;11.464;2022-11-14T00:22:55;27.37;;;21.20;;
611;SDS011;293;53.888;11.464;2022-11-14T00:25:22;29.20;;;21.20;;
611;SDS011;293;53.888;11.464;2022-11-14T00:27:50;25.57;;;20.47;;
611;SDS011;293;53.888;11.464;2022-11-14T00:30:17;29.30;;;21.40;;
611;SDS011;293;53.888;11.464;2022-11-14T00:32:44;23.50;;;19.93;;
611;SDS011;293;53.888;11.464;2022-11-14T00:35:11;28.53;;;21.93;;
611;SDS011;293;53.888;11.464;2022-11-14T00:37:38;28.63;;;22.03;;
611;SDS011;293;53.888;11.464;2022-11-14T00:40:05;29.87;;;23.00;;
611;SDS011;293;53.888;11.464;2022-11-14T00:42:33;29.80;;;21.37;;
611;SDS011;293;53.888;11.464;2022-11-14T00:45:01;29.13;;;22.50;;
611;SDS011;293;53.888;11.464;2022-11-14T00:47:28;27.13;;;20.97;;
611;SDS011;293;53.888;11.464;2022-11-14T00:49:55;28.73;;;21.50;;
611;SDS011;293;53.888;11.464;2022-11-14T00:52:22;23.40;;;19.83;;
611;SDS011;293;53.888;11.464;2022-11-14T00:54:49;28.10;;;20.20;;
611;SDS011;293;53.888;11.464;2022-11-14T00:57:15;33.67;;;23.57;;
611;SDS011;293;53.888;11.464;2022-11-14T00:59:42;28.07;;;22.27;;
611;SDS011;293;53.888;11.464;2022-11-14T01:02:11;29.87;;;22.33;;
611;SDS011;293;53.888;11.464;2022-11-14T01:04:37;28.20;;;21.50;;
611;SDS011;293;53.888;11.464;2022-11-14T01:07:04;25.37;;;21.93;;
611;SDS011;293;53.888;11.464;2022-11-14T01:09:31;24.83;;;18.93;;
611;SDS011;293;53.888;11.464;2022-11-14T01:11:58;26.93;;;21.43;;
611;SDS011;293;53.888;11.464;2022-11-14T01:14:25;27.70;;;21.50;;
611;SDS011;293;53.888;11.464;2022-11-14T01:16:52;26.83;;;19.40;;
611;SDS011;293;53.888;11.464;2022-11-14T01:19:20;27.03;;;18.63;;
611;SDS011;293;53.888;11.464;2022-11-14T01:21:47;30.20;;;19.93;;
611;SDS011;293;53.888;11.464;2022-11-14T01:24:14;25.57;;;19.90;;
611;SDS011;293;53.888;11.464;2022-11-14T01:26:41;28.43;;;21.40;;
611;SDS011;293;53.888;11.464;2022-11-14T01:29:07;27.10;;;19.60;;
611;SDS011;293;53.888;11.464;2022-11-14T01:31:34;22.00;;;18.37;;
611;SDS011;293;53.888;11.464;2022-11-14T01:34:01;23.57;;;19.00;;
611;SDS011;293;53.888;11.464;2022-11-14T01:36:30;23.30;;;18.73;;
611;SDS011;293;53.888;11.464;2022-11-14T01:38:56;23.07;;;19.10;;
611;SDS011;293;53.888;11.464;2022-11-14T01:41:23;21.83;;;17.80;;
611;SDS011;293;53.888;11.464;2022-11-14T01:43:50;22.67;;;18.57;;
611;SDS011;293;53.888;11.464;2022-11-14T01:46:18;24.80;;;18.63;;
611;SDS011;293;53.888;11.464;2022-11-14T01:48:49;24.73;;;16.87;;
611;SDS011;293;53.888;11.464;2022-11-14T01:51:21;23.20;;;18.23;;
611;SDS011;293;53.888;11.464;2022-11-14T01:53:52;22.27;;;17.27;;
611;SDS011;293;53.888;11.464;2022-11-14T01:56:22;18.53;;;16.37;;
611;SDS011;293;53.888;11.464;2022-11-14T01:58:53;21.97;;;18.23;;
611;SDS011;293;53.888;11.464;2022-11-14T02:01:24;21.93;;;16.07;;
611;SDS011;293;53.888;11.464;2022-11-14T02:03:53;21.33;;;16.87;;
611;SDS011;293;53.888;11.464;2022-11-14T02:06:23;21.83;;;17.93;;
611;SDS011;293;53.888;11.464;2022-11-14T02:08:54;21.60;;;17.53;;
611;SDS011;293;53.888;11.464;2022-11-14T02:11:23;20.73;;;16.87;;
611;SDS011;293;53.888;11.464;2022-11-14T02:13:50;25.83;;;19.10;;
611;SDS011;293;53.888;11.464;2022-11-14T02:16:17;19.37;;;16.77;;
611;SDS011;293;53.888;11.464;2022-11-14T02:18:44;22.30;;;18.70;;
611;SDS011;293;53.888;11.464;2022-11-14T02:21:12;20.60;;;17.57;;
611;SDS011;293;53.888;11.464;2022-11-14T02:23:39;24.47;;;18.10;;
611;SDS011;293;53.888;11.464;2022-11-14T02:26:05;20.40;;;16.57;;
611;SDS011;293;53.888;11.464;2022-11-14T02:28:32;24.23;;;19.47;;
611;SDS011;293;53.888;11.464;2022-11-14T02:30:59;20.03;;;17.37;;
611;SDS011;293;53.888;11.464;2022-11-14T02:33:26;24.77;;;20.80;;
611;SDS011;293;53.888;11.464;2022-11-14T02:35:53;21.77;;;18.50;;
611;SDS011;293;53.888;11.464;2022-11-14T02:38:21;25.53;;;21.20;;
611;SDS011;293;53.888;11.464;2022-11-14T02:40:48;22.67;;;19.03;;
611;SDS011;293;53.888;11.464;2022-11-14T02:43:15;22.67;;;18.60;;
611;SDS011;293;53.888;11.464;2022-11-14T02:45:42;22.20;;;19.50;;
611;SDS011;293;53.888;11.464;2022-11-14T02:48:09;22.00;;;18.17;;
611;SDS011;293;53.888;11.464;2022-11-14T02:50:36;25.60;;;20.00;;
611;SDS011;293;53.888;11.464;2022-11-14T02:53:03;26.03;;;20.93;;
611;SDS011;293;53.888;11.464;2022-11-14T02:55:31;25.00;;;20.10;;
611;SDS011;293;53.888;11.464;2022-11-14T02:57:58;27.10;;;20.00;;
611;SDS011;293;53.888;11.464;2022-11-14T03:00:25;23.40;;;18.80;;
611;SDS011;293;53.888;11.464;2022-11-14T03:02:52;22.53;;;18.27;;
611;SDS011;293;53.888;11.464;2022-11-14T03:05:19;29.00;;;20.03;;
611;SDS011;293;53.888;11.464;2022-11-14T03:07:46;23.87;;;19.10;;
611;SDS011;293;53.888;11.464;2022-11-14T03:10:13;23.90;;;19.23;;
611;SDS011;293;53.888;11.464;2022-11-14T03:12:41;24.73;;;19.30;;
611;SDS011;293;53.888;11.464;2022-11-14T03:15:08;28.43;;;21.70;;
611;SDS011;293;53.888;11.464;2022-11-14T03:17:35;25.40;;;20.50;;
611;SDS011;293;53.888;11.464;2022-11-14T03:20:03;28.00;;;20.50;;
611;SDS011;293;53.888;11.464;2022-11-14T03:22:30;26.33;;;19.93;;
611;SDS011;293;53.888;11.464;2022-11-14T03:24:57;23.80;;;18.57;;
611;SDS011;293;53.888;11.464;2022-11-14T03:27:24;25.47;;;18.50;;
611;SDS011;293;53.888;11.464;2022-11-14T03:29:52;23.93;;;18.93;;
611;SDS011;293;53.888;11.464;2022-11-14T03:32:19;26.27;;;20.07;;
611;SDS011;293;53.888;11.464;2022-11-14T03:34:46;23.20;;;20.70;;
611;SDS011;293;53.888;11.464;2022-11-14T03:37:13;26.27;;;19.83;;
611;SDS011;293;53.888;11.464;2022-11-14T03:39:40;26.10;;;21.10;;
611;SDS011;293;53.888;11.464;2022-11-14T03:42:07;26.87;;;20.17;;
611;SDS011;293;53.888;11.464;2022-11-14T03:44:34;26.60;;;20.77;;
611;SDS011;293;53.888;11.464;2022-11-14T03:47:02;30.93;;;21.80;;
611;SDS011;293;53.888;11.464;2022-11-14T03:49:29;31.53;;;21.73;;
611;SDS011;293;53.888;11.464;2022-11-14T03:51:56;29.10;;;21.07;;
611;SDS011;293;53.888;11.464;2022-11-14T03:54:23;26.20;;;21.77;;
611;SDS011;293;53.888;11.464;2022-11-14T03:56:50;25.73;;;19.40;;
611;SDS011;293;53.888;11.464;2022-11-14T03:59:16;26.43;;;19.30;;
611;SDS011;293;53.888;11.464;2022-11-14T04:01:43;29.07;;;21.67;;
611;SDS011;293;53.888;11.464;2022-11-14T04:04:12;30.23;;;21.90;;
611;SDS011;293;53.888;11.464;2022-11-14T04:06:39;28.27;;;22.00;;
611;SDS011;293;53.888;11.464;2022-11-14T04:09:06;33.60;;;25.23;;
611;SDS011;293;53.888;11.464;2022-11-14T04:11:33;31.33;;;22.43;;
611;SDS011;293;53.888;11.464;2022-11-14T04:14:00;31.53;;;21.97;;
611;SDS011;293;53.888;11.464;2022-11-14T04:16:26;27.00;;;20.20;;
611;SDS011;293;53.888;11.464;2022-11-14T04:18:53;29.33;;;21.03;;
611;SDS011;293;53.888;11.464;2022-11-14T04:21:22;31.53;;;22.97;;
611;SDS011;293;53.888;11.464;2022-11-14T04:23:49;31.53;;;22.50;;
611;SDS011;293;53.888;11.464;2022-11-14T04:26:16;27.63;;;21.73;;
611;SDS011;293;53.888;11.464;2022-11-14T04:28:43;30.80;;;22.33;;
611;SDS011;293;53.888;11.464;2022-11-14T04:31:09;27.17;;;20.57;;
611;SDS011;293;53.888;11.464;2022-11-14T04:33:36;30.47;;;22.77;;
611;SDS011;293;53.888;11.464;2022-11-14T04:36:03;33.70;;;21.80;;
611;SDS011;293;53.888;11.464;2022-11-14T04:38:32;33.47;;;23.80;;
611;SDS011;293;53.888;11.464;2022-11-14T04:40:59;28.83;;;22.93;;
611;SDS011;293;53.888;11.464;2022-11-14T04:43:25;36.97;;;25.53;;
611;SDS011;293;53.888;11.464;2022-11-14T04:45:52;30.90;;;23.67;;
611;SDS011;293;53.888;11.464;2022-11-14T04:48:19;29.53;;;22.30;;
611;SDS011;293;53.888;11.464;2022-11-14T04:50:46;31.27;;;22.73;;
611;SDS011;293;53.888;11.464;2022-11-14T04:53:13;31.03;;;22.93;;
611;SDS011;293;53.888;11.464;2022-11-14T04:55:42;33.50;;;23.93;;
611;SDS011;293;53.888;11.464;2022-11-14T04:58:09;30.77;;;23.23;;
611;SDS011;293;53.888;11.464;2022-11-14T05:00:36;34.40;;;23.40;;
611;SDS011;293;53.888;11.464;2022-11-14T05:03:03;36.03;;;25.50;;
611;SDS011;293;53.888;11.464;2022-11-14T05:05:30;30.57;;;21.67;;
611;SDS011;293;53.888;11.464;2022-11-14T05:07:57;32.80;;;25.30;;
611;SDS011;293;53.888;11.464;2022-11-14T05:10:24;31.20;;;22.63;;
611;SDS011;293;53.888;11.464;2022-11-14T05:12:53;31.67;;;23.93;;
611;SDS011;293;53.888;11.464;2022-11-14T05:15:20;33.63;;;25.23;;
611;SDS011;293;53.888;11.464;2022-11-14T05:17:47;40.70;;;27.67;;
611;SDS011;293;53.888;11.464;2022-11-14T05:20:14;33.83;;;25.90;;
611;SDS011;293;53.888;11.464;2022-11-14T05:22:41;34.30;;;24.73;;
611;SDS011;293;53.888;11.464;2022-11-14T05:25:08;31.70;;;23.70;;
611;SDS011;293;53.888;11.464;2022-11-14T05:27:35;34.97;;;23.80;;
611;SDS011;293;53.888;11.464;2022-11-14T05:30:04;34.57;;;23.77;;
611;SDS011;293;53.888;11.464;2022-11-14T05:32:31;33.93;;;25.33;;
611;SDS011;293;53.888;11.464;2022-11-14T05:34:58;31.40;;;23.70;;
611;SDS011;293;53.888;11.464;2022-11-14T05:37:25;32.73;;;23.03;;
611;SDS011;293;53.888;11.464;2022-11-14T05:39:52;35.57;;;24.67;;
611;SDS011;293;53.888;11.464;2022-11-14T05:42:19;36.33;;;24.73;;
611;SDS011;293;53.888;11.464;2022-11-14T05:44:46;35.87;;;24.00;;
611;SDS011;293;53.888;11.464;2022-11-14T05:47:14;50.60;;;36.20;;
611;SDS011;293;53.888;11.464;2022-11-14T05:49:41;41.13;;;27.83;;
611;SDS011;293;53.888;11.464;2022-11-14T05:52:08;36.97;;;26.80;;
611;SDS011;293;53.888;11.464;2022-11-14T05:54:34;35.13;;;23.77;;
611;SDS011;293;53.888;11.464;2022-11-14T05:57:01;37.90;;;24.97;;
611;SDS011;293;53.888;11.464;2022-11-14T05:59:29;40.47;;;27.00;;
611;SDS011;293;53.888;11.464;2022-11-14T06:01:55;39.83;;;26.70;;
611;SDS011;293;53.888;11.464;2022-11-14T06:04:24;42.23;;;25.77;;
611;SDS011;293;53.888;11.464;2022-11-14T06:06:51;41.83;;;27.00;;
611;SDS011;293;53.888;11.464;2022-11-14T06:09:18;42.73;;;26.40;;
611;SDS011;293;53.888;11.464;2022-11-14T06:11:45;45.17;;;28.83;;
611;SDS011;293;53.888;11.464;2022-11-14T06:14:12;41.10;;;27.90;;
611;SDS011;293;53.888;11.464;2022-11-14T06:16:39;45.67;;;28.80;;
611;SDS011;293;53.888;11.464;2022-11-14T06:19:05;52.73;;;30.80;;
611;SDS011;293;53.888;11.464;2022-11-14T06:21:34;48.43;;;26.70;;
611;SDS011;293;53.888;11.464;2022-11-14T06:24:01;50.80;;;30.57;;
611;SDS011;293;53.888;11.464;2022-11-14T06:26:28;48.83;;;31.27;;
611;SDS011;293;53.888;11.464;2022-11-14T06:28:57;41.40;;;28.70;;
611;SDS011;293;53.888;11.464;2022-11-14T06:31:24;52.40;;;30.90;;
611;SDS011;293;53.888;11.464;2022-11-14T06:33:52;45.53;;;29.20;;
611;SDS011;293;53.888;11.464;2022-11-14T06:36:19;49.83;;;31.13;;
611;SDS011;293;53.888;11.464;2022-11-14T06:38:47;43.80;;;28.20;;
611;SDS011;293;53.888;11.464;2022-11-14T06:41:15;52.77;;;30.87;;
611;SDS011;293;53.888;11.464;2022-11-14T06:43:44;49.97;;;29.73;;
611;SDS011;293;53.888;11.464;2022-11-14T06:46:12;51.60;;;30.17;;
611;SDS011;293;53.888;11.464;2022-11-14T06:48:41;51.50;;;33.00;;
611;SDS011;293;53.888;11.464;2022-11-14T06:51:10;61.63;;;39.50;;
611;SDS011;293;53.888;11.464;2022-11-14T06:53:38;54.43;;;34.77;;
611;SDS011;293;53.888;11.464;2022-11-14T06:56:08;54.43;;;32.50;;
611;SDS011;293;53.888;11.464;2022-11-14T06:58:37;49.67;;;29.53;;
611;SDS011;293;53.888;11.464;2022-11-14T07:01:06;57.53;;;33.33;;
611;SDS011;293;53.888;11.464;2022-11-14T07:03:36;55.17;;;32.33;;
611;SDS011;293;53.888;11.464;2022-11-14T07:06:03;57.80;;;34.50;;
611;SDS011;293;53.888;11.464;2022-11-14T07:08:31;48.53;;;30.97;;
611;SDS011;293;53.888;11.464;2022-11-14T07:11:02;52.63;;;32.20;;
611;SDS011;293;53.888;11.464;2022-11-14T07:13:31;50.23;;;31.73;;
611;SDS011;293;53.888;11.464;2022-11-14T07:15:59;62.23;;;35.27;;
611;SDS011;293;53.888;11.464;2022-11-14T07:18:28;51.87;;;31.90;;
611;SDS011;293;53.888;11.464;2022-11-14T07:20:56;56.77;;;35.70;;
611;SDS011;293;53.888;11.464;2022-11-14T07:23:24;50.20;;;30.77;;
611;SDS011;293;53.888;11.464;2022-11-14T07:25:51;54.93;;;33.47;;
611;SDS011;293;53.888;11.464;2022-11-14T07:28:18;57.47;;;33.40;;
611;SDS011;293;53.888;11.464;2022-11-14T07:30:46;58.30;;;34.67;;
611;SDS011;293;53.888;11.464;2022-11-14T07:33:13;53.07;;;32.80;;
611;SDS011;293;53.888;11.464;2022-11-14T07:35:40;53.27;;;30.90;;
611;SDS011;293;53.888;11.464;2022-11-14T07:38:07;51.30;;;30.17;;
611;SDS011;293;53.888;11.464;2022-11-14T07:40:34;50.10;;;29.80;;
611;SDS011;293;53.888;11.464;2022-11-14T07:43:01;57.70;;;32.67;;
611;SDS011;293;53.888;11.464;2022-11-14T07:45:28;56.47;;;34.00;;
611;SDS011;293;53.888;11.464;2022-11-14T07:47:56;51.00;;;32.50;;
611;SDS011;293;53.888;11.464;2022-11-14T07:50:24;55.37;;;32.50;;
611;SDS011;293;53.888;11.464;2022-11-14T07:52:52;51.37;;;31.63;;
611;SDS011;293;53.888;11.464;2022-11-14T07:55:21;53.90;;;35.80;;
611;SDS011;293;53.888;11.464;2022-11-14T07:57:51;65.90;;;36.37;;
611;SDS011;293;53.888;11.464;2022-11-14T08:00:18;54.50;;;33.67;;
611;SDS011;293;53.888;11.464;2022-11-14T08:02:46;88.87;;;52.27;;
611;SDS011;293;53.888;11.464;2022-11-14T08:05:14;61.83;;;38.00;;
611;SDS011;293;53.888;11.464;2022-11-14T08:07:44;146.37;;;83.10;;
611;SDS011;293;53.888;11.464;2022-11-14T08:10:11;56.63;;;32.87;;
611;SDS011;293;53.888;11.464;2022-11-14T08:12:38;50.63;;;31.80;;
611;SDS011;293;53.888;11.464;2022-11-14T08:15:07;52.53;;;32.87;;
611;SDS011;293;53.888;11.464;2022-11-14T08:17:35;51.47;;;30.23;;
611;SDS011;293;53.888;11.464;2022-11-14T08:20:02;51.30;;;28.67;;
611;SDS011;293;53.888;11.464;2022-11-14T08:22:31;55.63;;;33.40;;
611;SDS011;293;53.888;11.464;2022-11-14T08:24:58;49.17;;;30.83;;
611;SDS011;293;53.888;11.464;2022-11-14T08:27:25;47.23;;;31.10;;
611;SDS011;293;53.888;11.464;2022-11-14T08:29:52;50.67;;;33.73;;
611;SDS011;293;53.888;11.464;2022-11-14T08:32:19;44.17;;;29.07;;
611;SDS011;293;53.888;11.464;2022-11-14T08:34:46;48.10;;;29.60;;
611;SDS011;293;53.888;11.464;2022-11-14T08:37:15;50.13;;;32.33;;
611;SDS011;293;53.888;11.464;2022-11-14T08:39:44;46.17;;;29.30;;
611;SDS011;293;53.888;11.464;2022-11-14T08:42:11;47.83;;;29.20;;
611;SDS011;293;53.888;11.464;2022-11-14T08:44:41;51.60;;;29.57;;
611;SDS011;293;53.888;11.464;2022-11-14T08:47:08;47.83;;;27.60;;
611;SDS011;293;53.888;11.464;2022-11-14T08:49:35;44.53;;;27.00;;
611;SDS011;293;53.888;11.464;2022-11-14T08:52:02;45.13;;;30.70;;
611;SDS011;293;53.888;11.464;2022-11-14T08:54:30;47.90;;;30.03;;
611;SDS011;293;53.888;11.464;2022-11-14T08:56:59;45.90;;;29.43;;
611;SDS011;293;53.888;11.464;2022-11-14T08:59:29;45.97;;;29.90;;
611;SDS011;293;53.888;11.464;2022-11-14T09:01:56;42.20;;;28.57;;
611;SDS011;293;53.888;11.464;2022-11-14T09:04:23;49.57;;;29.47;;
611;SDS011;293;53.888;11.464;2022-11-14T09:06:50;47.43;;;30.57;;
611;SDS011;293;53.888;11.464;2022-11-14T09:09:17;40.87;;;28.23;;
611;SDS011;293;53.888;11.464;2022-11-14T09:11:45;47.70;;;31.57;;
611;SDS011;293;53.888;11.464;2022-11-14T09:14:13;47.57;;;28.70;;
611;SDS011;293;53.888;11.464;2022-11-14T09:16:41;48.60;;;28.90;;
611;SDS011;293;53.888;11.464;2022-11-14T09:19:11;43.63;;;28.10;;
611;SDS011;293;53.888;11.464;2022-11-14T09:21:40;47.90;;;28.80;;
611;SDS011;293;53.888;11.464;2022-11-14T09:24:08;44.00;;;26.37;;
611;SDS011;293;53.888;11.464;2022-11-14T09:26:35;44.90;;;28.83;;
611;SDS011;293;53.888;11.464;2022-11-14T09:29:02;43.70;;;28.40;;
611;SDS011;293;53.888;11.464;2022-11-14T09:31:32;43.57;;;29.07;;
611;SDS011;293;53.888;11.464;2022-11-14T09:33:59;47.73;;;31.17;;
611;SDS011;293;53.888;11.464;2022-11-14T09:36:25;46.70;;;28.60;;
611;SDS011;293;53.888;11.464;2022-11-14T09:38:52;49.30;;;31.50;;
611;SDS011;293;53.888;11.464;2022-11-14T09:41:23;43.50;;;28.03;;
611;SDS011;293;53.888;11.464;2022-11-14T09:44:03;42.43;;;29.30;;
611;SDS011;293;53.888;11.464;2022-11-14T09:46:44;52.53;;;35.30;;
611;SDS011;293;53.888;11.464;2022-11-14T09:49:18;66.77;;;42.67;;
611;SDS011;293;53.888;11.464;2022-11-14T09:51:53;48.07;;;31.80;;
611;SDS011;293;53.888;11.464;2022-11-14T09:54:27;58.00;;;34.63;;
611;SDS011;293;53.888;11.464;2022-11-14T09:56:58;41.50;;;27.13;;
611;SDS011;293;53.888;11.464;2022-11-14T09:59:25;51.13;;;30.87;;
611;SDS011;293;53.888;11.464;2022-11-14T10:01:56;46.57;;;28.87;;
611;SDS011;293;53.888;11.464;2022-11-14T10:04:30;44.00;;;29.80;;
611;SDS011;293;53.888;11.464;2022-11-14T10:07:09;49.87;;;30.13;;
611;SDS011;293;53.888;11.464;2022-11-14T10:09:49;47.70;;;27.87;;
611;SDS011;293;53.888;11.464;2022-11-14T10:12:26;45.40;;;28.13;;
611;SDS011;293;53.888;11.464;2022-11-14T10:17:52;51.60;;;30.60;;
611;SDS011;293;53.888;11.464;2022-11-14T10:20:30;40.00;;;27.63;;
611;SDS011;293;53.888;11.464;2022-11-14T10:23:03;50.40;;;32.33;;
611;SDS011;293;53.888;11.464;2022-11-14T10:25:41;47.73;;;29.13;;
611;SDS011;293;53.888;11.464;2022-11-14T10:28:26;43.20;;;28.00;;
611;SDS011;293;53.888;11.464;2022-11-14T10:31:01;45.97;;;27.83;;
611;SDS011;293;53.888;11.464;2022-11-14T10:33:35;49.27;;;29.93;;
611;SDS011;293;53.888;11.464;2022-11-14T10:36:12;46.10;;;30.23;;
611;SDS011;293;53.888;11.464;2022-11-14T10:38:48;49.23;;;31.50;;
611;SDS011;293;53.888;11.464;2022-11-14T10:41:21;39.27;;;25.63;;
611;SDS011;293;53.888;11.464;2022-11-14T10:43:51;39.43;;;27.40;;
611;SDS011;293;53.888;11.464;2022-11-14T10:46:21;46.07;;;30.00;;
611;SDS011;293;53.888;11.464;2022-11-14T10:48:53;42.67;;;27.20;;
611;SDS011;293;53.888;11.464;2022-11-14T10:51:23;43.57;;;28.43;;
611;SDS011;293;53.888;11.464;2022-11-14T10:53:55;47.63;;;31.53;;
611;SDS011;293;53.888;11.464;2022-11-14T10:56:25;47.03;;;29.67;;
611;SDS011;293;53.888;11.464;2022-11-14T10:58:52;51.40;;;30.47;;
611;SDS011;293;53.888;11.464;2022-11-14T11:01:32;46.47;;;28.77;;
611;SDS011;293;53.888;11.464;2022-11-14T11:04:13;46.83;;;27.53;;
611;SDS011;293;53.888;11.464;2022-11-14T11:06:45;46.97;;;27.60;;
611;SDS011;293;53.888;11.464;2022-11-14T11:09:14;44.07;;;29.03;;
611;SDS011;293;53.888;11.464;2022-11-14T11:12:00;46.00;;;26.63;;
611;SDS011;293;53.888;11.464;2022-11-14T11:14:29;46.20;;;28.43;;
611;SDS011;293;53.888;11.464;2022-11-14T11:19:46;43.07;;;26.57;;
611;SDS011;293;53.888;11.464;2022-11-14T11:22:24;44.13;;;27.50;;
611;SDS011;293;53.888;11.464;2022-11-14T11:24:53;44.07;;;27.40;;
611;SDS011;293;53.888;11.464;2022-11-14T11:27:21;39.00;;;27.47;;
611;SDS011;293;53.888;11.464;2022-11-14T11:30:00;43.93;;;28.37;;
611;SDS011;293;53.888;11.464;2022-11-14T11:32:32;44.20;;;29.10;;
611;SDS011;293;53.888;11.464;2022-11-14T11:35:01;38.80;;;26.47;;
611;SDS011;293;53.888;11.464;2022-11-14T11:37:35;44.70;;;27.87;;
611;SDS011;293;53.888;11.464;2022-11-14T11:40:05;42.03;;;26.83;;
611;SDS011;293;53.888;11.464;2022-11-14T11:42:39;40.30;;;27.20;;
611;SDS011;293;53.888;11.464;2022-11-14T11:45:11;45.37;;;27.43;;
611;SDS011;293;53.888;11.464;2022-11-14T11:47:42;40.40;;;27.77;;
611;SDS011;293;53.888;11.464;2022-11-14T11:50:18;41.70;;;26.23;;
611;SDS011;293;53.888;11.464;2022-11-14T11:52:47;41.93;;;27.53;;
611;SDS011;293;53.888;11.464;2022-11-14T11:55:23;39.10;;;25.93;;
611;SDS011;293;53.888;11.464;2022-11-14T11:57:55;37.47;;;26.93;;
611;SDS011;293;53.888;11.464;2022-11-14T12:00:28;47.70;;;33.57;;
611;SDS011;293;53.888;11.464;2022-11-14T12:02:55;54.60;;;36.57;;
611;SDS011;293;53.888;11.464;2022-11-14T12:05:27;43.70;;;27.50;;
611;SDS011;293;53.888;11.464;2022-11-14T12:08:02;42.07;;;27.47;;
611;SDS011;293;53.888;11.464;2022-11-14T12:10:32;40.43;;;26.83;;
611;SDS011;293;53.888;11.464;2022-11-14T12:13:18;38.30;;;24.80;;
611;SDS011;293;53.888;11.464;2022-11-14T12:16:05;44.67;;;26.93;;
611;SDS011;293;53.888;11.464;2022-11-14T12:21:54;44.90;;;27.20;;
611;SDS011;293;53.888;11.464;2022-11-14T12:24:43;37.53;;;24.77;;
611;SDS011;293;53.888;11.464;2022-11-14T12:27:23;39.97;;;26.20;;
611;SDS011;293;53.888;11.464;2022-11-14T12:30:03;42.33;;;26.57;;
611;SDS011;293;53.888;11.464;2022-11-14T12:32:38;42.83;;;26.20;;
611;SDS011;293;53.888;11.464;2022-11-14T12:35:12;40.03;;;27.10;;
611;SDS011;293;53.888;11.464;2022-11-14T12:37:44;39.93;;;25.10;;
611;SDS011;293;53.888;11.464;2022-11-14T12:42:54;43.20;;;29.20;;
611;SDS011;293;53.888;11.464;2022-11-14T12:48:28;39.50;;;26.33;;
611;SDS011;293;53.888;11.464;2022-11-14T12:50:57;40.43;;;26.17;;
611;SDS011;293;53.888;11.464;2022-11-14T12:53:42;38.20;;;26.33;;
611;SDS011;293;53.888;11.464;2022-11-14T12:56:16;37.90;;;25.77;;
611;SDS011;293;53.888;11.464;2022-11-14T12:59:12;40.50;;;26.87;;
611;SDS011;293;53.888;11.464;2022-11-14T13:01:58;39.07;;;25.53;;
611;SDS011;293;53.888;11.464;2022-11-14T13:04:53;38.57;;;23.93;;
611;SDS011;293;53.888;11.464;2022-11-14T13:07:37;37.70;;;22.30;;
611;SDS011;293;53.888;11.464;2022-11-14T13:10:21;31.97;;;24.40;;
611;SDS011;293;53.888;11.464;2022-11-14T13:12:58;37.20;;;23.90;;
611;SDS011;293;53.888;11.464;2022-11-14T13:15:49;36.57;;;24.50;;
611;SDS011;293;53.888;11.464;2022-11-14T13:18:35;40.70;;;27.10;;
611;SDS011;293;53.888;11.464;2022-11-14T13:21:32;39.73;;;25.10;;
611;SDS011;293;53.888;11.464;2022-11-14T13:24:12;30.07;;;19.80;;
611;SDS011;293;53.888;11.464;2022-11-14T13:26:45;36.60;;;26.30;;
611;SDS011;293;53.888;11.464;2022-11-14T13:44:55;42.03;;;26.37;;
611;SDS011;293;53.888;11.464;2022-11-14T13:47:54;41.03;;;25.20;;
611;SDS011;293;53.888;11.464;2022-11-14T13:50:42;39.13;;;24.33;;
611;SDS011;293;53.888;11.464;2022-11-14T13:53:16;37.43;;;25.90;;
611;SDS011;293;53.888;11.464;2022-11-14T13:55:52;38.80;;;26.50;;
611;SDS011;293;53.888;11.464;2022-11-14T13:58:33;40.63;;;25.97;;
611;SDS011;293;53.888;11.464;2022-11-14T14:01:25;43.17;;;26.73;;
611;SDS011;293;53.888;11.464;2022-11-14T14:04:11;41.03;;;27.53;;
611;SDS011;293;53.888;11.464;2022-11-14T14:06:52;38.00;;;23.63;;
611;SDS011;293;53.888;11.464;2022-11-14T14:09:27;37.67;;;25.00;;
611;SDS011;293;53.888;11.464;2022-11-14T14:12:05;35.57;;;25.90;;
611;SDS011;293;53.888;11.464;2022-11-14T14:14:52;39.77;;;26.00;;
611;SDS011;293;53.888;11.464;2022-11-14T14:17:30;38.07;;;23.97;;
611;SDS011;293;53.888;11.464;2022-11-14T14:20:11;41.63;;;25.00;;
611;SDS011;293;53.888;11.464;2022-11-14T14:22:46;43.90;;;27.23;;
611;SDS011;293;53.888;11.464;2022-11-14T14:25:22;39.07;;;25.00;;
611;SDS011;293;53.888;11.464;2022-11-14T14:27:59;36.60;;;24.97;;
611;SDS011;293;53.888;11.464;2022-11-14T14:30:32;37.27;;;25.43;;
611;SDS011;293;53.888;11.464;2022-11-14T14:33:04;39.90;;;25.27;;
611;SDS011;293;53.888;11.464;2022-11-14T14:35:36;36.70;;;24.60;;
611;SDS011;293;53.888;11.464;2022-11-14T14:38:08;36.27;;;23.07;;
611;SDS011;293;53.888;11.464;2022-11-14T14:40:38;39.23;;;26.07;;
611;SDS011;293;53.888;11.464;2022-11-14T14:43:11;41.00;;;26.70;;
611;SDS011;293;53.888;11.464;2022-11-14T14:45:50;37.10;;;24.80;;
611;SDS011;293;53.888;11.464;2022-11-14T14:48:20;42.90;;;25.30;;
611;SDS011;293;53.888;11.464;2022-11-14T14:50:50;37.80;;;24.73;;
611;SDS011;293;53.888;11.464;2022-11-14T14:53:18;57.93;;;40.77;;
611;SDS011;293;53.888;11.464;2022-11-14T14:55:51;52.10;;;38.53;;
611;SDS011;293;53.888;11.464;2022-11-14T14:58:24;38.33;;;26.30;;
611;SDS011;293;53.888;11.464;2022-11-14T15:00:54;38.70;;;25.10;;
611;SDS011;293;53.888;11.464;2022-11-14T15:03:24;36.73;;;24.50;;
611;SDS011;293;53.888;11.464;2022-11-14T15:05:56;37.40;;;24.83;;
611;SDS011;293;53.888;11.464;2022-11-14T15:08:24;41.13;;;24.83;;
611;SDS011;293;53.888;11.464;2022-11-14T15:10:53;36.37;;;24.50;;
611;SDS011;293;53.888;11.464;2022-11-14T15:13:23;41.80;;;25.03;;
611;SDS011;293;53.888;11.464;2022-11-14T15:15:54;38.93;;;28.00;;
611;SDS011;293;53.888;11.464;2022-11-14T15:18:23;42.90;;;28.30;;
611;SDS011;293;53.888;11.464;2022-11-14T15:21:12;41.77;;;28.87;;
611;SDS011;293;53.888;11.464;2022-11-14T15:23:42;62.30;;;45.93;;
611;SDS011;293;53.888;11.464;2022-11-14T15:26:10;41.07;;;28.40;;
611;SDS011;293;53.888;11.464;2022-11-14T15:28:40;41.83;;;26.70;;
611;SDS011;293;53.888;11.464;2022-11-14T15:31:14;35.30;;;25.17;;
611;SDS011;293;53.888;11.464;2022-11-14T15:33:43;35.87;;;21.37;;
611;SDS011;293;53.888;11.464;2022-11-14T15:36:11;34.57;;;22.27;;
611;SDS011;293;53.888;11.464;2022-11-14T15:38:56;36.00;;;24.10;;
611;SDS011;293;53.888;11.464;2022-11-14T15:41:24;41.53;;;25.67;;
611;SDS011;293;53.888;11.464;2022-11-14T15:43:53;41.87;;;25.10;;
611;SDS011;293;53.888;11.464;2022-11-14T15:46:30;36.23;;;24.00;;
611;SDS011;293;53.888;11.464;2022-11-14T15:49:09;40.43;;;27.60;;